YBBNYBHM

Guest
Details From YBBN - Brisbane Intl
To YBHM - Hamilton I.
Flight Number -
Tags decoded
Created
Modified
Stats Distance 493 nm / 913 km
Max Altitude 0 ft / 0 m
Waypoints 8
Social Downloads 0
Likes 0
Share VATSIM

Download

Looking for another format? Having issues loading an existing format? Contact us
Advertisement - Login to hide

Notes

Requested: YBBN GRAEM PLUGG HBAWG SHABY YBPI GOSVU BHMSM YBHM Unmatched points: GOSVU

Route

YBBN GRAEM PLUGG HBAWG SHABY YBPI BHMSM YBHM

ID Type Via Altitude (ft/m) Position (lat/lon) Dist (leg/tot) Name
O YBBN APT - 0 / 0 -27.37571 / 153.12771 - / 0 nm Brisbane Intl
GRAEM FIX - 0 / 0 -27.31554 / 153.16809 4 / 4 nm
PLUGG FIX - 0 / 0 -27.16445 / 153.19441 9 / 13 nm
HBAWG FIX - 0 / 0 -25.15248 / 152.72486 123 / 136 nm
SHABY FIX - 0 / 0 -22.68528 / 150.83647 180 / 317 nm
YBPI APT - 0 / 0 -20.80325 / 149.27878 142 / 460 nm Brampton Island
BHMSM FIX - 0 / 0 -20.39421 / 148.98115 29 / 489 nm
O YBHM APT - 0 / 0 -20.35748 / 148.95164 2 / 492 nm Hamilton I.

Altitude Profile

Advertisement - Login to hide

Weather


0- 5 10 15 20 25 30 35+ Temperature / °C

Clouds and Precipitation
Forecast for 2018-08-20 12:00 UTC. Updated an hour ago

Ground ~20,000 ft ~40,000 ft Winds

YBBN

Details ICAO YBBN (BNE)
Name Brisbane Intl
Region Australia
Timezone Australia/Brisbane (UTC+10.0)
Stats Elevation 12 ft / 4 m (AMSL)
Location -27.375800° 153.128000°
Runways 2
Magnetic Variation 10.988° E

METAR

YBBN 201000Z 00000KT CAVOK 12/05 Q1019 NOSIG

Decode

TAF

TAF YBBN 200513Z 2006/2112 17010KT CAVOK FM201000 23006KT CAVOK FM202200 26010KT CAVOK FM210400 04008KT CAVOK FM210900 28007KT CAVOK

Decode

Departure Runways

ID Width Length Bearing (true/mag) Surface Threshold Overrun Markings Lighting
01 148 ft / 45 m 11,744 ft / 3,580 m 26.93° / 15.94° ASPHALT 213 ft / 65 m 0 ft / 0 m UK-APP CENTERLINE EDGE THRESHOLD CALVERT REIL-OMNI
14 98 ft / 30 m 5,787 ft / 1,764 m 145.66° / 134.67° ASPHALT 197 ft / 60 m 0 ft / 0 m APP EDGE THRESHOLD
19 148 ft / 45 m 11,744 ft / 3,580 m 206.92° / 195.93° ASPHALT 0 ft / 0 m 0 ft / 0 m UK-APP CENTERLINE EDGE THRESHOLD CALVERT TDZ REIL-OMNI
32 98 ft / 30 m 5,787 ft / 1,764 m 325.66° / 314.67° ASPHALT 197 ft / 60 m 0 ft / 0 m APP EDGE THRESHOLD

YBHM

Details ICAO YBHM (HTI)
Name Hamilton I.
Region Australia
Timezone Australia/Lindeman (UTC+10.0)
Stats Elevation 14 ft / 4 m (AMSL)
Location -20.357500° 148.952000°
Runways 1
Magnetic Variation 8.146° E

METAR

YBHM 201000Z AUTO 13015KT 9999 // NCD 18/06 Q1020

Decode

TAF

Not found

Destination Runways

ID Width Length Bearing (true/mag) Surface Threshold Overrun Markings Lighting
14 151 ft / 46 m 5,596 ft / 1,706 m 143.03° / 134.88° ASPHALT 0 ft / 0 m 0 ft / 0 m PREC-APP CENTERLINE EDGE THRESHOLD
32 151 ft / 46 m 5,596 ft / 1,706 m 323.03° / 314.88° ASPHALT 0 ft / 0 m 0 ft / 0 m PREC-APP CENTERLINE EDGE THRESHOLD

Popular Alternatives